createdAt,value
2018-10-12T00:04:35.066Z,71.10
2018-10-12T00:10:05.688Z,70.70
2018-10-12T00:15:35.098Z,70.70
2018-10-12T00:21:08.521Z,71.10
2018-10-12T00:26:38.024Z,71.10
2018-10-12T00:32:07.522Z,71.40
2018-10-12T00:37:36.972Z,71.60
2018-10-12T00:43:06.378Z,71.90
2018-10-12T00:48:35.713Z,71.50
2018-10-12T00:54:04.992Z,71.80
2018-10-12T00:59:34.276Z,71.70
2018-10-12T01:05:04.737Z,71.40
2018-10-12T01:10:34.046Z,71.00
2018-10-12T01:16:03.402Z,70.70
2018-10-12T01:21:32.741Z,70.30
2018-10-12T01:27:04.065Z,70.40
2018-10-12T01:32:38.409Z,70.70
2018-10-12T01:38:08.846Z,69.40
2018-10-12T01:43:38.167Z,68.50
2018-10-12T01:49:07.597Z,67.80
2018-10-12T01:54:36.961Z,67.00
2018-10-12T02:00:07.041Z,66.50
2018-10-12T02:05:36.377Z,66.20
2018-10-12T02:11:06.940Z,66.00
2018-10-12T02:16:36.336Z,65.80
2018-10-12T02:22:05.731Z,65.70
2018-10-12T02:27:36.336Z,65.70
2018-10-12T02:33:05.721Z,65.70
2018-10-12T02:38:35.114Z,66.40
2018-10-12T02:44:04.446Z,65.80
2018-10-12T02:49:33.747Z,66.10
2018-10-12T02:55:04.317Z,65.80
2018-10-12T03:00:33.674Z,65.70
2018-10-12T03:06:03.062Z,65.60
2018-10-12T03:11:33.439Z,65.50
2018-10-12T03:17:02.882Z,65.40
2018-10-12T03:22:32.210Z,65.30
2018-10-12T03:28:19.755Z,65.20
2018-10-12T03:33:49.983Z,65.20
2018-10-12T03:39:19.227Z,65.20
2018-10-12T03:44:48.569Z,65.10
2018-10-12T03:50:17.907Z,65.10
2018-10-12T03:55:47.140Z,65.10
2018-10-12T04:01:16.514Z,65.20
2018-10-12T04:06:45.801Z,65.20
2018-10-12T04:12:15.032Z,65.40
2018-10-12T04:17:44.441Z,65.70
2018-10-12T04:23:14.385Z,66.00
2018-10-12T04:28:43.965Z,66.50
2018-10-12T04:34:13.349Z,66.30
2018-10-12T04:41:56.635Z,66.30
2018-10-12T04:47:30.628Z,66.60
2018-10-12T04:53:03.974Z,66.70
2018-10-12T04:58:38.018Z,66.70
2018-10-12T05:04:07.557Z,66.90
2018-10-12T05:09:37.517Z,66.90
2018-10-12T05:15:07.029Z,67.00
2018-10-12T05:20:36.646Z,67.10
2018-10-12T05:26:06.544Z,67.30
2018-10-12T05:31:36.250Z,67.50
2018-10-12T05:37:06.107Z,67.70
2018-10-12T05:42:35.693Z,67.90
2018-10-12T05:48:22.025Z,68.20
2018-10-12T05:53:52.238Z,68.80
2018-10-12T05:59:21.857Z,68.60
2018-10-12T06:04:51.389Z,68.80
2018-10-12T06:10:20.923Z,69.00
2018-10-12T06:15:50.555Z,69.10
2018-10-12T06:21:19.996Z,69.10
2018-10-12T06:26:49.496Z,69.00
2018-10-12T06:32:18.900Z,68.90
2018-10-12T06:37:48.481Z,69.30
2018-10-12T06:43:17.954Z,69.30
2018-10-12T06:48:49.741Z,69.00
2018-10-12T06:54:19.273Z,68.90
2018-10-12T06:59:48.746Z,68.80
2018-10-12T07:05:18.276Z,68.70
2018-10-12T07:10:47.746Z,68.70
2018-10-12T07:16:17.744Z,68.40
2018-10-12T07:21:47.270Z,68.20
2018-10-12T07:27:16.745Z,67.70
2018-10-12T07:32:46.329Z,67.50
2018-10-12T07:38:16.033Z,67.40
2018-10-12T07:43:45.654Z,67.00
2018-10-12T07:49:15.226Z,66.50
2018-10-12T07:54:45.294Z,66.00
2018-10-12T08:00:15.167Z,65.60
2018-10-12T08:05:44.869Z,65.20
2018-10-12T08:11:14.520Z,64.20
2018-10-12T08:16:44.053Z,63.30
2018-10-12T08:22:13.609Z,62.80
2018-10-12T08:27:42.900Z,61.40
2018-10-12T08:33:12.162Z,60.00
2018-10-12T08:38:41.505Z,59.30
2018-10-12T08:44:10.850Z,59.10
2018-10-12T08:49:40.067Z,58.60
2018-10-12T08:55:09.349Z,58.10
2018-10-12T09:00:38.633Z,57.50
2018-10-12T09:06:07.942Z,57.20
2018-10-12T09:11:37.721Z,56.80
2018-10-12T09:17:07.137Z,56.30
2018-10-12T09:22:36.412Z,55.80
2018-10-12T09:28:05.859Z,55.40
2018-10-12T09:33:35.324Z,54.70
2018-10-12T09:39:05.748Z,54.80
2018-10-12T09:44:35.328Z,54.50
2018-10-12T09:50:04.754Z,53.90
2018-10-12T09:55:34.032Z,53.20
2018-10-12T10:01:08.404Z,53.10
2018-10-12T10:06:37.784Z,53.00
2018-10-12T10:12:07.148Z,52.50
2018-10-12T10:17:36.669Z,51.70
2018-10-12T10:23:05.943Z,52.50
2018-10-12T10:28:35.260Z,51.80
2018-10-12T10:34:04.803Z,51.80
2018-10-12T10:39:34.139Z,51.40
2018-10-12T10:45:03.965Z,51.10
2018-10-12T10:50:33.312Z,50.60
2018-10-12T10:56:02.629Z,50.70
2018-10-12T11:01:31.855Z,49.90
2018-10-12T11:07:02.225Z,49.40
2018-10-12T11:12:31.735Z,50.10
2018-10-12T11:18:01.028Z,48.90
2018-10-12T11:23:30.373Z,48.50
2018-10-12T11:28:59.864Z,48.60
2018-10-12T11:34:29.158Z,47.70
2018-10-12T11:39:58.384Z,48.00
2018-10-12T11:45:27.948Z,48.00
2018-10-12T11:50:57.309Z,47.90
2018-10-12T11:56:26.636Z,47.20
2018-10-12T12:01:55.943Z,47.20
2018-10-12T12:07:25.357Z,47.50
2018-10-12T12:12:54.645Z,46.30
2018-10-12T12:18:24.010Z,47.90
2018-10-12T12:23:54.485Z,46.60
2018-10-12T12:29:24.377Z,46.50
2018-10-12T12:34:53.945Z,47.80
2018-10-12T12:40:23.125Z,47.10
2018-10-12T12:45:52.524Z,47.20
2018-10-12T12:51:21.757Z,46.80
2018-10-12T12:56:51.146Z,46.20
2018-10-12T13:02:21.581Z,44.70
2018-10-12T13:07:51.812Z,42.60
2018-10-12T13:13:21.612Z,42.40
2018-10-12T13:18:50.901Z,42.80
2018-10-12T13:24:20.413Z,43.00
2018-10-12T13:29:49.795Z,42.50
2018-10-12T13:35:19.345Z,40.70
2018-10-12T13:40:48.672Z,38.90
2018-10-12T13:46:18.077Z,36.30
2018-10-12T13:51:47.414Z,34.10
2018-10-12T13:57:16.608Z,33.10
2018-10-12T14:02:45.920Z,31.50
2018-10-12T14:08:15.446Z,30.40
2018-10-12T14:13:44.794Z,29.80
2018-10-12T14:19:14.407Z,29.80
2018-10-12T14:24:43.436Z,29.40
2018-10-12T14:30:12.832Z,29.10
2018-10-12T14:35:42.211Z,28.40
2018-10-12T14:41:11.637Z,28.50
2018-10-12T14:46:40.997Z,28.80
2018-10-12T14:52:10.459Z,28.50
2018-10-12T14:57:39.844Z,28.90
2018-10-12T15:03:09.205Z,30.10
2018-10-12T15:08:38.488Z,31.20
2018-10-12T15:14:07.929Z,33.50
2018-10-12T15:19:38.422Z,36.20
2018-10-12T15:25:07.793Z,36.90
2018-10-12T15:30:37.134Z,38.80
2018-10-12T15:36:06.624Z,40.20
2018-10-12T15:41:36.232Z,41.40
2018-10-12T15:47:05.670Z,42.20
2018-10-12T15:52:35.260Z,43.20
2018-10-12T15:58:05.576Z,44.00
2018-10-12T16:03:35.105Z,44.80
2018-10-12T16:09:05.269Z,45.50
2018-10-12T16:14:34.724Z,46.10
2018-10-12T16:20:05.582Z,46.40
2018-10-12T16:26:04.232Z,47.20
2018-10-12T16:31:33.502Z,48.10
2018-10-12T16:37:03.223Z,48.20
2018-10-12T16:42:32.976Z,48.90
2018-10-12T16:48:02.652Z,50.00
2018-10-12T16:53:32.288Z,49.90
2018-10-12T16:59:01.943Z,50.50
2018-10-12T17:04:32.288Z,50.90
2018-10-12T17:10:02.075Z,51.60
2018-10-12T17:15:31.726Z,52.00
2018-10-12T17:21:03.089Z,52.80
2018-10-12T17:26:33.441Z,53.50
2018-10-12T17:32:02.787Z,54.00
2018-10-12T17:37:32.284Z,54.50
2018-10-12T17:43:01.953Z,54.90
2018-10-12T17:48:31.342Z,55.40
2018-10-12T17:54:05.061Z,55.90
2018-10-12T17:59:34.719Z,56.50
2018-10-12T18:05:06.281Z,57.10
2018-10-12T18:10:35.709Z,57.80
2018-10-12T18:16:07.823Z,58.30
2018-10-12T18:21:58.144Z,58.60
2018-10-12T18:27:31.104Z,59.20
2018-10-12T18:33:02.904Z,59.80
2018-10-12T18:38:33.511Z,60.50
2018-10-12T18:44:03.289Z,60.70
2018-10-12T18:49:35.274Z,61.50
2018-10-12T18:55:07.116Z,61.90
2018-10-12T19:00:47.658Z,62.20
2018-10-12T19:06:32.854Z,62.70
2018-10-12T19:12:15.056Z,63.20
2018-10-12T19:17:55.086Z,63.90
2018-10-12T19:23:39.360Z,64.00
2018-10-12T19:29:20.368Z,64.40
2018-10-12T19:34:55.357Z,64.90
2018-10-12T19:40:34.900Z,65.40
2018-10-12T19:46:11.602Z,65.60
2018-10-12T19:51:52.526Z,65.80
2018-10-12T19:57:35.001Z,66.20
2018-10-12T20:03:06.492Z,66.60
2018-10-12T20:08:55.978Z,67.10
2018-10-12T20:14:43.035Z,67.50
2018-10-12T20:20:14.274Z,67.70
2018-10-12T20:25:45.584Z,67.90
2018-10-12T20:31:26.330Z,68.10
2018-10-12T20:36:58.105Z,68.30
2018-10-12T20:42:27.636Z,68.40
2018-10-12T20:47:57.034Z,68.50
2018-10-12T20:53:26.324Z,68.70
2018-10-12T20:58:55.736Z,68.90
2018-10-12T21:04:26.415Z,69.80
2018-10-12T21:09:56.063Z,69.30
2018-10-12T21:15:25.452Z,69.60
2018-10-12T21:20:54.904Z,69.70
2018-10-12T21:26:24.587Z,69.90
2018-10-12T21:31:54.104Z,70.10
2018-10-12T21:37:23.760Z,70.40
2018-10-12T21:42:53.253Z,70.50
2018-10-12T21:48:23.065Z,70.60
2018-10-12T21:53:53.950Z,70.70
2018-10-12T21:59:23.635Z,70.80
2018-10-12T22:04:52.981Z,71.10
2018-10-12T22:10:22.255Z,71.10
2018-10-12T22:15:51.532Z,71.30
2018-10-12T22:21:21.269Z,71.30
2018-10-12T22:26:51.604Z,71.50
2018-10-12T22:32:20.784Z,71.50
2018-10-12T22:37:50.062Z,71.80
2018-10-12T22:43:19.274Z,71.90
2018-10-12T22:48:48.616Z,72.10
2018-10-12T22:54:18.168Z,72.30
2018-10-12T22:59:47.754Z,72.40
2018-10-12T23:05:16.969Z,72.50
2018-10-12T23:10:46.296Z,72.50
2018-10-12T23:16:15.524Z,72.80
2018-10-12T23:21:44.817Z,73.00
2018-10-12T23:27:14.063Z,73.20
2018-10-12T23:32:43.350Z,73.20
2018-10-12T23:38:12.649Z,73.40
2018-10-12T23:43:41.861Z,73.60
2018-10-12T23:49:12.116Z,73.60
2018-10-12T23:54:41.339Z,73.80
